Time;durP1;ratioP1;P1;durP2;ratioP2;P2;SDS_P1;SDS_P2;PMS_P1;PMS_P2;Temp;Humidity;BMP_temperature;BMP_pressure;BME280_temperature;BME280_humidity;BME280_pressure;Samples;Min_cycle;Max_cycle;Signal;HPM_P1;HPM_P2
2022/09/03 00:01:57;;;;;;;0.40;0.40;;;22.40;59.30;;;;;;6215371;28;20385;-72
2022/09/03 00:05:10;;;;;;;0.40;0.40;;;22.40;59.30;;;;;;6222231;28;20086;-72
2022/09/03 00:08:30;;;;;;;0.45;0.32;;;22.30;59.20;;;;;;6217318;28;20022;-73
2022/09/03 00:11:39;;;;;;;0.65;0.50;;;22.40;59.30;;;;;;6216124;28;20034;-72
2022/09/03 00:14:46;;;;;;;0.47;0.30;;;22.30;59.20;;;;;;6216506;28;20029;-72
2022/09/03 00:18:03;;;;;;;0.35;0.30;;;22.30;59.20;;;;;;6219901;28;20030;-72
2022/09/03 00:21:11;;;;;;;0.60;0.32;;;22.40;59.30;;;;;;6216658;28;20556;-72
2022/09/03 00:24:15;;;;;;;0.30;0.30;;;22.40;59.30;;;;;;6215575;28;20439;-72
2022/09/03 00:27:24;;;;;;;0.80;0.40;;;22.40;59.30;;;;;;6216123;28;20502;-72
2022/09/03 00:30:25;;;;;;;0.20;0.20;;;22.30;59.20;;;;;;6215929;28;20058;-72
2022/09/03 00:33:31;;;;;;;0.47;0.40;;;22.30;59.20;;;;;;6215587;28;20108;-72
2022/09/03 00:36:41;;;;;;;0.30;0.30;;;22.40;59.30;;;;;;6215478;28;20044;-72
2022/09/03 00:39:43;;;;;;;0.35;0.35;;;22.40;59.30;;;;;;6216380;28;20059;-72
2022/09/03 00:43:13;;;;;;;0.40;0.30;;;22.40;59.30;;;;;;6215517;28;20393;-72
2022/09/03 00:46:32;;;;;;;0.50;0.40;;;22.40;59.30;;;;;;6216819;28;20501;-72
2022/09/03 00:49:53;;;;;;;0.28;0.28;;;22.40;59.30;;;;;;6217315;28;20396;-72
2022/09/03 00:53:17;;;;;;;0.75;0.43;;;22.30;59.20;;;;;;6217264;28;20030;-72
2022/09/03 00:56:40;;;;;;;0.30;0.30;;;22.30;59.20;;;;;;6215379;28;20026;-72
2022/09/03 01:00:02;;;;;;;0.30;0.30;;;22.30;59.20;;;;;;6216490;28;20105;-73
2022/09/03 01:03:10;;;;;;;0.82;0.40;;;22.30;59.20;;;;;;6215148;28;20029;-72
2022/09/03 01:06:30;;;;;;;0.20;0.20;;;22.30;59.20;;;;;;6215369;28;20068;-72
2022/09/03 01:09:47;;;;;;;0.40;0.30;;;22.30;59.20;;;;;;6215393;28;20453;-72
2022/09/03 01:12:59;;;;;;;1.13;0.40;;;22.30;59.20;;;;;;6218208;28;20236;-72
2022/09/03 01:16:18;;;;;;;0.65;0.30;;;22.30;59.20;;;;;;6215223;28;20398;-72
2022/09/03 01:19:51;;;;;;;0.40;0.40;;;22.30;59.20;;;;;;6215816;28;20014;-72
2022/09/03 01:23:28;;;;;;;0.30;0.30;;;22.30;59.20;;;;;;6208251;28;20030;-72
2022/09/03 01:26:40;;;;;;;0.40;0.40;;;22.30;59.30;;;;;;6199141;28;20018;-72
2022/09/03 01:29:57;;;;;;;1.25;0.40;;;22.30;59.90;;;;;;6215190;28;20034;-72
2022/09/03 01:33:24;;;;;;;0.22;0.22;;;22.30;59.20;;;;;;6215118;28;20030;-72
2022/09/03 01:36:33;;;;;;;0.40;0.30;;;22.30;59.20;;;;;;6216746;28;20018;-72
2022/09/03 01:40:00;;;;;;;0.50;0.47;;;22.30;59.20;;;;;;6216025;28;20030;-72
2022/09/03 01:43:16;;;;;;;0.70;0.30;;;22.30;59.30;;;;;;6214729;28;20053;-72
2022/09/03 01:46:29;;;;;;;1.52;0.30;;;22.30;59.20;;;;;;6214483;28;20106;-72
2022/09/03 01:49:40;;;;;;;0.30;0.30;;;22.30;59.20;;;;;;6217205;28;20400;-72
2022/09/03 01:52:58;;;;;;;0.30;0.30;;;22.40;59.30;;;;;;6213874;28;20053;-72
2022/09/03 01:56:10;;;;;;;0.40;0.35;;;22.30;59.20;;;;;;6214179;28;20029;-72
2022/09/03 01:59:21;;;;;;;0.57;0.43;;;22.30;59.20;;;;;;6190709;28;20023;-72
2022/09/03 02:02:24;;;;;;;0.32;0.28;;;22.30;59.20;;;;;;6200530;28;20065;-72
2022/09/03 02:05:26;;;;;;;0.45;0.40;;;22.30;59.20;;;;;;6212752;28;20034;-72
2022/09/03 02:08:28;;;;;;;0.40;0.40;;;22.30;59.20;;;;;;6214206;28;20086;-72
2022/09/03 02:11:28;;;;;;;0.50;0.40;;;22.30;59.20;;;;;;6215362;28;20086;-72
2022/09/03 02:14:31;;;;;;;0.40;0.40;;;22.30;59.20;;;;;;6215976;28;20026;-72
2022/09/03 02:17:33;;;;;;;1.02;0.50;;;22.30;59.20;;;;;;6214572;28;20083;-73
2022/09/03 02:20:34;;;;;;;0.35;0.30;;;22.30;59.90;;;;;;6215980;28;20117;-74
2022/09/03 02:23:38;;;;;;;0.30;0.30;;;22.30;59.20;;;;;;6215537;28;20030;-72
2022/09/03 02:26:38;;;;;;;0.30;0.30;;;22.30;59.20;;;;;;6214141;28;20078;-72
2022/09/03 02:29:39;;;;;;;0.32;0.32;;;22.30;59.20;;;;;;6213918;28;20030;-72
2022/09/03 02:32:40;;;;;;;0.52;0.40;;;22.30;59.20;;;;;;6213135;28;20048;-72
2022/09/03 02:35:42;;;;;;;0.40;0.38;;;22.30;59.20;;;;;;6213361;28;20022;-72
2022/09/03 02:38:44;;;;;;;1.20;0.40;;;22.30;59.20;;;;;;6214397;28;20026;-72
2022/09/03 02:41:57;;;;;;;0.90;0.57;;;22.30;59.20;;;;;;6213536;28;20046;-72
2022/09/03 02:45:21;;;;;;;1.08;0.50;;;22.30;59.20;;;;;;6202279;28;20135;-72
2022/09/03 02:48:23;;;;;;;0.40;0.30;;;22.30;59.20;;;;;;6213784;28;20069;-72
2022/09/03 02:51:24;;;;;;;0.40;0.32;;;22.30;59.20;;;;;;6213695;28;20074;-72
2022/09/03 02:54:24;;;;;;;0.40;0.40;;;22.30;59.20;;;;;;6213497;28;20059;-72
2022/09/03 02:57:25;;;;;;;0.57;0.40;;;22.30;59.20;;;;;;6213786;28;20384;-72
2022/09/03 03:00:27;;;;;;;0.20;0.20;;;22.30;59.20;;;;;;6213621;28;20028;-72
2022/09/03 03:03:28;;;;;;;0.50;0.30;;;22.30;59.20;;;;;;6213435;28;20479;-72
2022/09/03 03:06:29;;;;;;;0.32;0.32;;;22.30;59.20;;;;;;6217795;28;20022;-72
2022/09/03 03:09:29;;;;;;;0.30;0.30;;;22.30;59.20;;;;;;6217776;28;20057;-72
2022/09/03 03:12:30;;;;;;;0.45;0.30;;;22.30;59.20;;;;;;6218140;28;20018;-73
2022/09/03 03:15:30;;;;;;;0.30;0.30;;;22.30;59.20;;;;;;6217527;28;20018;-72
2022/09/03 03:18:33;;;;;;;0.47;0.47;;;22.30;59.20;;;;;;6216360;28;20067;-72
2022/09/03 03:21:33;;;;;;;0.30;0.30;;;22.30;59.20;;;;;;6217541;28;20025;-72
2022/09/03 03:24:35;;;;;;;0.73;0.30;;;22.30;59.20;;;;;;6217184;28;20036;-72
2022/09/03 03:27:38;;;;;;;1.05;0.30;;;22.30;59.20;;;;;;6217276;28;20034;-72
2022/09/03 03:30:41;;;;;;;0.70;0.35;;;22.30;59.20;;;;;;6217725;28;20034;-72
2022/09/03 03:33:42;;;;;;;0.52;0.40;;;22.30;59.20;;;;;;6217542;28;20037;-72
2022/09/03 03:36:43;;;;;;;0.25;0.25;;;22.30;59.20;;;;;;6216927;28;20030;-72
2022/09/03 03:39:44;;;;;;;0.30;0.30;;;22.30;59.20;;;;;;6217332;28;20071;-72
2022/09/03 03:42:44;;;;;;;0.50;0.30;;;22.30;59.20;;;;;;6217384;28;20054;-72
2022/09/03 03:45:55;;;;;;;0.40;0.30;;;22.30;59.20;;;;;;6215691;28;20459;-72
2022/09/03 03:48:57;;;;;;;0.40;0.22;;;22.30;59.20;;;;;;6217130;28;20061;-72
2022/09/03 03:51:57;;;;;;;0.80;0.50;;;22.30;59.20;;;;;;6217338;28;20021;-73
2022/09/03 03:54:58;;;;;;;0.40;0.30;;;22.30;59.20;;;;;;6216618;28;20029;-72
2022/09/03 03:57:58;;;;;;;0.80;0.40;;;22.30;59.20;;;;;;6217040;28;20043;-72
2022/09/03 04:01:08;;;;;;;0.30;0.30;;;22.30;59.20;;;;;;6216110;28;20069;-72
2022/09/03 04:04:09;;;;;;;0.55;0.40;;;22.30;59.20;;;;;;6216705;28;20029;-72
2022/09/03 04:07:09;;;;;;;0.77;0.40;;;22.30;59.20;;;;;;6216554;28;20026;-72
2022/09/03 04:10:10;;;;;;;0.50;0.35;;;22.30;59.20;;;;;;6216612;28;20083;-72
2022/09/03 04:13:11;;;;;;;0.30;0.30;;;22.30;59.20;;;;;;6216628;28;20033;-72
2022/09/03 04:16:14;;;;;;;0.38;0.38;;;22.30;59.20;;;;;;6215960;28;20030;-73
2022/09/03 04:19:15;;;;;;;0.50;0.40;;;22.30;59.20;;;;;;6216615;28;20026;-72
2022/09/03 04:22:17;;;;;;;0.40;0.30;;;22.30;59.20;;;;;;6216239;28;20026;-72
2022/09/03 04:25:18;;;;;;;0.50;0.30;;;22.30;59.20;;;;;;6216047;28;20388;-72
2022/09/03 04:28:19;;;;;;;0.40;0.38;;;22.30;59.20;;;;;;6216435;28;20030;-72
2022/09/03 04:31:20;;;;;;;0.28;0.20;;;22.30;59.20;;;;;;6216023;28;20026;-72
2022/09/03 04:34:21;;;;;;;0.30;0.30;;;22.30;59.20;;;;;;6215699;28;20030;-73
2022/09/03 04:37:22;;;;;;;0.35;0.30;;;22.30;59.20;;;;;;6216327;28;20087;-72
2022/09/03 04:40:22;;;;;;;0.43;0.40;;;22.30;59.20;;;;;;6216063;28;20030;-72
2022/09/03 04:43:23;;;;;;;0.22;0.22;;;22.30;59.20;;;;;;6217327;28;20063;-73
2022/09/03 04:46:32;;;;;;;0.57;0.40;;;22.30;59.20;;;;;;6217394;28;20487;-72
2022/09/03 04:49:33;;;;;;;0.50;0.30;;;22.30;59.20;;;;;;6217407;28;20461;-73
2022/09/03 04:52:34;;;;;;;0.30;0.30;;;22.30;59.20;;;;;;6217030;28;20025;-72
2022/09/03 04:55:36;;;;;;;0.75;0.40;;;22.30;59.20;;;;;;6217349;28;20026;-72
2022/09/03 04:58:36;;;;;;;2.05;0.28;;;22.30;59.20;;;;;;6216987;28;20034;-73
2022/09/03 05:01:39;;;;;;;0.47;0.40;;;22.30;59.20;;;;;;6208870;28;20499;-72
2022/09/03 05:04:40;;;;;;;0.38;0.35;;;22.30;59.20;;;;;;6191185;28;20083;-72
2022/09/03 05:07:41;;;;;;;0.30;0.30;;;22.30;59.20;;;;;;6215094;28;20502;-72
2022/09/03 05:10:41;;;;;;;0.40;0.40;;;22.30;59.20;;;;;;6216251;28;20046;-72
2022/09/03 05:13:42;;;;;;;0.40;0.40;;;22.30;59.20;;;;;;6217244;28;20033;-72
2022/09/03 05:16:43;;;;;;;0.40;0.30;;;22.30;59.80;;;;;;6216856;28;20022;-73
2022/09/03 05:19:43;;;;;;;0.30;0.30;;;22.30;59.20;;;;;;6216880;28;20231;-72
2022/09/03 05:22:44;;;;;;;0.50;0.40;;;22.30;59.10;;;;;;6216922;28;20025;-73
2022/09/03 05:25:57;;;;;;;0.40;0.30;;;22.30;59.10;;;;;;6216496;28;20026;-72
2022/09/03 05:29:00;;;;;;;0.25;0.25;;;22.30;59.20;;;;;;6212611;28;20072;-72
2022/09/03 05:32:01;;;;;;;0.30;0.30;;;22.30;59.20;;;;;;6214790;28;20097;-72
2022/09/03 05:35:02;;;;;;;0.50;0.30;;;22.30;59.20;;;;;;6213839;28;20484;-72
2022/09/03 05:38:03;;;;;;;0.30;0.22;;;22.30;59.10;;;;;;6215587;28;20096;-72
2022/09/03 05:41:08;;;;;;;0.55;0.30;;;22.30;59.20;;;;;;6216274;28;20022;-72
2022/09/03 05:44:09;;;;;;;0.35;0.30;;;22.30;59.10;;;;;;6216124;28;20060;-73
2022/09/03 05:47:10;;;;;;;0.50;0.40;;;22.30;59.10;;;;;;6216748;28;20428;-72
2022/09/03 05:50:11;;;;;;;0.55;0.30;;;22.30;59.10;;;;;;6216053;28;20034;-72
2022/09/03 05:53:11;;;;;;;0.50;0.40;;;22.30;59.20;;;;;;6214485;28;20033;-72
2022/09/03 05:56:18;;;;;;;0.43;0.40;;;22.30;59.20;;;;;;6215542;28;20052;-72
2022/09/03 05:59:18;;;;;;;0.50;0.40;;;22.30;59.20;;;;;;6213118;28;20030;-72
2022/09/03 06:02:19;;;;;;;0.30;0.30;;;22.30;59.20;;;;;;6214776;28;20026;-72
2022/09/03 06:05:19;;;;;;;0.43;0.40;;;22.30;59.20;;;;;;6214352;28;20022;-72
2022/09/03 06:08:21;;;;;;;0.45;0.30;;;22.30;59.20;;;;;;6214471;28;20535;-72
2022/09/03 06:11:25;;;;;;;0.50;0.50;;;22.30;59.20;;;;;;6212936;28;20026;-72
2022/09/03 06:14:26;;;;;;;0.70;0.50;;;22.30;59.20;;;;;;6213810;28;20042;-72
2022/09/03 06:17:26;;;;;;;1.35;0.45;;;22.30;59.20;;;;;;6214446;28;20022;-72
2022/09/03 06:20:27;;;;;;;0.40;0.40;;;22.30;59.20;;;;;;6214755;28;20021;-73
2022/09/03 06:23:30;;;;;;;2.45;0.40;;;22.30;59.20;;;;;;6214068;28;20480;-72
2022/09/03 06:26:30;;;;;;;0.50;0.40;;;22.30;59.20;;;;;;6212353;28;20113;-72
2022/09/03 06:29:31;;;;;;;0.50;0.30;;;22.30;59.20;;;;;;6213975;28;20544;-72
2022/09/03 06:32:32;;;;;;;0.40;0.40;;;22.30;59.20;;;;;;6215517;28;20091;-72
2022/09/03 06:35:32;;;;;;;0.77;0.40;;;22.30;59.20;;;;;;6215919;28;20408;-72
2022/09/03 06:38:34;;;;;;;0.95;0.40;;;22.30;59.20;;;;;;6214665;28;20018;-72
2022/09/03 06:41:35;;;;;;;0.40;0.40;;;22.30;59.20;;;;;;6217588;28;20031;-72
2022/09/03 06:44:36;;;;;;;1.10;0.60;;;22.30;59.20;;;;;;6224505;28;20153;-72
2022/09/03 06:47:36;;;;;;;0.80;0.50;;;22.30;59.20;;;;;;6218051;28;20490;-72
2022/09/03 06:50:37;;;;;;;0.65;0.50;;;22.30;59.20;;;;;;6218666;28;20034;-72
2022/09/03 06:53:40;;;;;;;0.50;0.50;;;22.30;59.20;;;;;;6217719;28;20026;-73
2022/09/03 06:56:41;;;;;;;0.50;0.50;;;22.30;59.10;;;;;;6218621;28;20022;-73
2022/09/03 06:59:42;;;;;;;0.68;0.68;;;22.30;59.20;;;;;;6218955;28;20026;-73
2022/09/03 07:02:44;;;;;;;0.68;0.55;;;22.30;59.20;;;;;;6218792;28;20075;-72
2022/09/03 07:05:45;;;;;;;0.65;0.50;;;22.30;59.20;;;;;;6217545;28;20025;-72
2022/09/03 07:08:46;;;;;;;0.43;0.40;;;22.30;59.20;;;;;;6217780;28;20484;-72
2022/09/03 07:11:46;;;;;;;0.50;0.45;;;22.30;59.20;;;;;;6217622;28;20078;-72
2022/09/03 07:14:47;;;;;;;0.45;0.40;;;22.30;59.20;;;;;;6217420;28;20022;-72
2022/09/03 07:17:49;;;;;;;1.13;0.60;;;22.30;59.20;;;;;;6217404;28;20033;-72
2022/09/03 07:20:49;;;;;;;0.77;0.57;;;22.30;59.20;;;;;;6217876;28;20492;-72
2022/09/03 07:23:52;;;;;;;0.40;0.30;;;22.30;59.20;;;;;;6216806;28;20049;-72
2022/09/03 07:26:53;;;;;;;0.45;0.40;;;22.30;59.10;;;;;;6219063;28;20025;-72
2022/09/03 07:29:54;;;;;;;0.50;0.40;;;22.30;59.20;;;;;;6217564;28;20098;-72
2022/09/03 07:32:55;;;;;;;0.68;0.50;;;22.30;59.20;;;;;;6217346;28;20026;-72
2022/09/03 07:35:55;;;;;;;1.23;0.50;;;22.30;59.20;;;;;;6217629;28;20692;-72
2022/09/03 07:38:57;;;;;;;0.57;0.43;;;22.30;59.20;;;;;;6217927;28;20048;-72
2022/09/03 07:41:58;;;;;;;0.93;0.50;;;22.30;59.20;;;;;;6217760;28;20057;-73
2022/09/03 07:44:59;;;;;;;0.43;0.40;;;22.30;59.20;;;;;;6217085;28;20071;-72
2022/09/03 07:48:00;;;;;;;0.63;0.50;;;22.30;59.20;;;;;;6215409;28;20023;-72
2022/09/03 07:51:01;;;;;;;0.57;0.47;;;22.30;59.20;;;;;;6217005;28;20022;-72
2022/09/03 07:54:05;;;;;;;0.80;0.40;;;22.30;59.20;;;;;;6218912;28;20026;-72
2022/09/03 07:57:06;;;;;;;0.40;0.40;;;22.30;59.20;;;;;;6218632;28;20030;-73
2022/09/03 08:00:07;;;;;;;0.52;0.40;;;22.30;59.20;;;;;;6218637;28;20049;-72
2022/09/03 08:03:09;;;;;;;0.45;0.35;;;22.30;59.20;;;;;;6217624;28;20022;-73
2022/09/03 08:06:11;;;;;;;0.43;0.32;;;22.30;59.80;;;;;;6218230;28;20026;-72
2022/09/03 08:09:12;;;;;;;1.52;0.65;;;22.30;59.20;;;;;;6224899;28;20034;-72
2022/09/03 08:12:13;;;;;;;1.77;0.60;;;22.30;59.20;;;;;;6217068;28;20029;-72
2022/09/03 08:15:13;;;;;;;0.88;0.50;;;22.30;59.20;;;;;;6216042;28;20541;-72
2022/09/03 08:18:14;;;;;;;0.57;0.47;;;22.30;59.20;;;;;;6216767;28;20018;-72
2022/09/03 08:21:17;;;;;;;0.40;0.40;;;22.30;59.20;;;;;;6222384;28;20560;-73
2022/09/03 08:24:20;;;;;;;0.50;0.47;;;22.30;59.20;;;;;;6216089;28;20029;-72
2022/09/03 08:27:24;;;;;;;0.47;0.40;;;22.30;59.20;;;;;;6216022;28;20029;-72
2022/09/03 08:30:26;;;;;;;0.50;0.43;;;22.30;59.20;;;;;;6215881;28;20044;-72
2022/09/03 08:33:36;;;;;;;0.82;0.40;;;22.30;59.20;;;;;;6215900;28;20101;-72
2022/09/03 08:36:40;;;;;;;0.50;0.50;;;22.30;59.10;;;;;;6216786;28;20061;-72
2022/09/03 08:39:40;;;;;;;0.55;0.45;;;22.30;59.20;;;;;;6216280;28;20037;-72
2022/09/03 08:42:52;;;;;;;0.50;0.40;;;22.30;59.20;;;;;;6215959;28;20077;-73
2022/09/03 08:45:53;;;;;;;0.30;0.30;;;22.30;59.20;;;;;;6212258;28;20056;-72
2022/09/03 08:48:55;;;;;;;0.50;0.50;;;22.30;59.20;;;;;;6215529;28;20038;-72
2022/09/03 08:52:01;;;;;;;1.00;0.60;;;22.30;59.20;;;;;;6216285;28;20391;-72
2022/09/03 08:55:08;;;;;;;0.52;0.35;;;22.30;59.20;;;;;;6215662;28;20056;-72
2022/09/03 08:58:14;;;;;;;0.63;0.40;;;22.30;59.20;;;;;;6216820;28;20030;-73
2022/09/03 09:01:37;;;;;;;0.45;0.40;;;22.30;59.20;;;;;;6216477;28;20109;-72
2022/09/03 09:05:18;;;;;;;0.57;0.40;;;22.30;59.20;;;;;;6216976;28;20033;-73
2022/09/03 09:08:40;;;;;;;0.75;0.45;;;22.30;59.20;;;;;;6290571;28;20562;-72
2022/09/03 09:12:08;;;;;;;0.50;0.40;;;22.30;59.20;;;;;;6285215;28;20024;-72
2022/09/03 09:15:33;;;;;;;0.50;0.40;;;22.30;59.20;;;;;;6216834;28;20037;-72
2022/09/03 09:19:03;;;;;;;0.70;0.43;;;22.30;59.80;;;;;;6217272;28;20639;-73
2022/09/03 09:22:13;;;;;;;0.50;0.50;;;22.30;59.20;;;;;;6218794;28;20102;-72
2022/09/03 09:25:25;;;;;;;0.85;0.30;;;22.30;59.20;;;;;;6216582;28;20032;-72
2022/09/03 09:28:33;;;;;;;0.50;0.47;;;22.30;59.20;;;;;;6215471;28;20042;-72
2022/09/03 09:31:34;;;;;;;0.47;0.38;;;22.30;59.20;;;;;;6208735;28;20025;-73
2022/09/03 09:34:37;;;;;;;0.50;0.40;;;22.30;59.20;;;;;;6214799;28;20030;-72
2022/09/03 09:37:56;;;;;;;0.35;0.35;;;22.30;59.20;;;;;;6215325;28;20029;-73
2022/09/03 09:41:11;;;;;;;0.50;0.50;;;22.30;59.20;;;;;;6215283;28;20026;-72
2022/09/03 09:44:19;;;;;;;0.50;0.30;;;22.30;59.20;;;;;;6214472;28;20133;-72
2022/09/03 09:47:23;;;;;;;0.50;0.47;;;22.30;59.20;;;;;;6216540;28;20022;-72
2022/09/03 09:50:25;;;;;;;0.52;0.32;;;22.30;59.20;;;;;;6215797;28;20090;-74
2022/09/03 09:53:26;;;;;;;0.57;0.40;;;22.30;59.20;;;;;;6216115;28;20041;-72
2022/09/03 09:56:28;;;;;;;1.25;0.50;;;22.30;59.20;;;;;;6214763;28;20456;-72
2022/09/03 09:59:30;;;;;;;0.50;0.40;;;22.30;59.20;;;;;;6214530;28;20028;-72
2022/09/03 10:02:34;;;;;;;1.88;0.55;;;22.30;59.20;;;;;;6214819;28;20022;-72
2022/09/03 10:05:39;;;;;;;2.53;0.60;;;22.30;59.20;;;;;;6214535;28;20053;-72
2022/09/03 10:08:41;;;;;;;;;;;22.30;59.20;;;;;;6215087;28;20038;-72
2022/09/03 10:11:49;;;;;;;0.40;0.40;;;22.20;59.10;;;;;;6214312;28;19935;-72
2022/09/03 10:14:55;;;;;;;0.47;0.30;;;22.30;59.20;;;;;;6213320;28;20033;-72
2022/09/03 10:18:07;;;;;;;0.60;0.40;;;22.30;59.20;;;;;;6215188;28;20025;-72
2022/09/03 10:21:19;;;;;;;1.15;0.60;;;22.30;59.20;;;;;;6216428;28;20026;-72
2022/09/03 10:24:39;;;;;;;0.35;0.35;;;22.30;59.20;;;;;;6215041;28;20032;-72
2022/09/03 10:27:40;;;;;;;0.45;0.40;;;22.30;59.20;;;;;;6190577;28;20025;-72
2022/09/03 10:30:58;;;;;;;0.40;0.40;;;22.30;59.20;;;;;;6199166;28;20037;-72
2022/09/03 10:34:17;;;;;;;0.50;0.35;;;22.30;59.20;;;;;;6220544;28;20026;-72
2022/09/03 10:37:32;;;;;;;0.47;0.32;;;22.30;59.20;;;;;;6214372;28;20041;-72
2022/09/03 10:40:43;;;;;;;0.60;0.50;;;22.30;59.20;;;;;;6219884;28;20159;-72
2022/09/03 10:43:44;;;;;;;0.40;0.40;;;22.30;59.20;;;;;;6213767;28;20054;-72
2022/09/03 10:47:03;;;;;;;0.43;0.30;;;22.30;59.30;;;;;;6214240;28;20043;-72
2022/09/03 10:50:10;;;;;;;0.38;0.30;;;22.30;59.30;;;;;;6213439;28;20041;-72
2022/09/03 10:53:23;;;;;;;0.35;0.35;;;22.30;59.30;;;;;;6214496;28;20470;-72
2022/09/03 10:56:49;;;;;;;0.98;0.40;;;22.30;59.20;;;;;;6213451;28;20071;-72
2022/09/03 10:59:50;;;;;;;0.40;0.40;;;22.30;59.20;;;;;;6213831;28;20042;-72
2022/09/03 11:03:30;;;;;;;1.30;0.30;;;22.30;59.30;;;;;;6215371;28;20434;-73
2022/09/03 11:06:58;;;;;;;0.47;0.40;;;22.30;59.30;;;;;;6215168;28;20034;-72
2022/09/03 11:10:11;;;;;;;0.35;0.30;;;22.30;59.20;;;;;;6215124;28;20030;-72
2022/09/03 11:13:25;;;;;;;1.40;0.63;;;22.30;59.20;;;;;;6214799;28;20412;-72
2022/09/03 11:16:31;;;;;;;0.40;0.40;;;22.30;59.20;;;;;;6214927;28;20041;-73
2022/09/03 11:19:57;;;;;;;0.30;0.30;;;22.30;59.20;;;;;;6214759;28;20034;-72
2022/09/03 11:23:02;;;;;;;0.25;0.25;;;22.30;59.20;;;;;;6213193;28;20026;-72
2022/09/03 11:26:08;;;;;;;0.38;0.28;;;22.30;59.20;;;;;;6215781;28;20021;-72
2022/09/03 11:29:16;;;;;;;0.40;0.30;;;22.30;59.20;;;;;;6217815;28;20144;-72
2022/09/03 11:32:25;;;;;;;0.30;0.30;;;22.30;59.20;;;;;;6217184;28;20101;-72
2022/09/03 11:35:31;;;;;;;1.17;0.30;;;22.30;59.20;;;;;;6217393;28;20029;-72
2022/09/03 11:38:31;;;;;;;0.40;0.30;;;22.30;59.20;;;;;;6217379;28;20029;-72
2022/09/03 11:41:37;;;;;;;0.43;0.38;;;22.30;59.20;;;;;;6216765;28;20719;-72
2022/09/03 11:44:41;;;;;;;1.30;0.50;;;22.30;59.20;;;;;;6217403;28;20038;-72
2022/09/03 11:47:43;;;;;;;0.50;0.40;;;22.30;59.10;;;;;;6217427;28;20025;-72
2022/09/03 11:50:53;;;;;;;0.38;0.35;;;22.30;59.20;;;;;;6219179;28;20038;-72
2022/09/03 11:53:56;;;;;;;0.40;0.40;;;22.30;59.10;;;;;;6194004;28;20502;-72
2022/09/03 11:57:22;;;;;;;0.57;0.55;;;22.30;59.10;;;;;;6202641;28;20017;-73
2022/09/03 12:00:23;;;;;;;0.25;0.25;;;22.30;59.10;;;;;;6218521;28;20026;-73
2022/09/03 12:03:35;;;;;;;0.60;0.40;;;22.30;59.10;;;;;;6218685;28;20426;-72
2022/09/03 12:06:47;;;;;;;0.30;0.30;;;22.30;59.10;;;;;;6218216;28;20695;-73
2022/09/03 12:09:57;;;;;;;0.43;0.30;;;22.30;59.10;;;;;;6218298;28;20058;-73
2022/09/03 12:13:27;;;;;;;0.50;0.40;;;22.30;59.10;;;;;;6216748;28;20025;-72
2022/09/03 12:16:47;;;;;;;0.20;0.20;;;22.30;59.10;;;;;;6241040;28;20547;-72
2022/09/03 12:19:50;;;;;;;0.40;0.40;;;22.30;59.10;;;;;;6215445;28;20099;-72
2022/09/03 12:22:51;;;;;;;0.77;0.50;;;22.30;59.10;;;;;;6216721;28;20032;-72
2022/09/03 12:25:52;;;;;;;0.32;0.30;;;22.30;59.10;;;;;;6222752;28;20128;-73
2022/09/03 12:28:55;;;;;;;0.98;0.50;;;22.30;59.10;;;;;;6216838;28;20545;-72
2022/09/03 12:32:04;;;;;;;0.70;0.50;;;22.30;59.20;;;;;;6217893;28;20109;-72
2022/09/03 12:35:21;;;;;;;0.90;0.50;;;22.30;59.20;;;;;;6217736;28;20365;-72
2022/09/03 12:38:26;;;;;;;0.40;0.35;;;22.30;59.20;;;;;;6216346;28;20400;-72
2022/09/03 12:41:29;;;;;;;;;;;22.30;59.20;;;;;;6217855;28;20033;-72
2022/09/03 12:44:38;;;;;;;0.25;0.25;;;22.30;59.20;;;;;;6217864;28;19909;-72
2022/09/03 12:47:39;;;;;;;0.70;0.50;;;22.30;59.20;;;;;;6216280;28;20026;-72
2022/09/03 12:50:40;;;;;;;0.40;0.40;;;22.30;59.20;;;;;;6216068;28;20034;-72
2022/09/03 12:53:41;;;;;;;0.20;0.20;;;22.30;59.20;;;;;;6214793;28;20065;-72
2022/09/03 12:56:47;;;;;;;0.20;0.20;;;22.30;59.20;;;;;;6212983;28;20049;-72
2022/09/03 12:59:52;;;;;;;0.32;0.30;;;22.20;59.10;;;;;;6214956;28;20057;-71
2022/09/03 13:03:09;;;;;;;0.30;0.30;;;22.20;59.10;;;;;;6216796;28;20022;-72
2022/09/03 13:06:13;;;;;;;0.40;0.40;;;22.30;59.20;;;;;;6216829;28;20030;-71
2022/09/03 13:09:18;;;;;;;0.20;0.20;;;22.30;59.20;;;;;;6215806;28;20622;-71
2022/09/03 13:12:28;;;;;;;0.20;0.20;;;22.20;59.20;;;;;;6215728;28;20030;-71
2022/09/03 13:15:29;;;;;;;0.50;0.40;;;22.30;59.90;;;;;;6215532;28;20030;-72
2022/09/03 13:18:36;;;;;;;0.45;0.30;;;22.30;59.20;;;;;;6215777;28;20132;-71
2022/09/03 13:21:42;;;;;;;0.32;0.30;;;22.30;59.20;;;;;;6215774;28;20411;-72
2022/09/03 13:25:01;;;;;;;0.30;0.30;;;22.30;59.20;;;;;;6215343;28;20473;-71
2022/09/03 13:28:14;;;;;;;0.60;0.50;;;22.30;59.20;;;;;;6215189;28;20071;-71
2022/09/03 13:31:52;;;;;;;0.40;0.30;;;22.20;59.10;;;;;;6216459;28;20037;-71
2022/09/03 13:35:03;;;;;;;0.40;0.30;;;22.30;59.20;;;;;;6216578;28;20038;-71
2022/09/03 13:38:07;;;;;;;0.30;0.30;;;22.30;59.20;;;;;;6215230;28;20014;-70
2022/09/03 13:41:33;;;;;;;0.32;0.32;;;22.30;59.20;;;;;;6215171;28;20408;-71
2022/09/03 13:44:50;;;;;;;0.40;0.40;;;22.30;59.20;;;;;;6214300;28;20046;-71
2022/09/03 13:51:28;;;;;;;0.20;0.20;;;22.30;59.20;;;;;;6215356;28;20065;-71
2022/09/03 13:54:33;;;;;;;2.15;0.40;;;22.30;59.20;;;;;;6216531;28;20385;-74
2022/09/03 13:57:48;;;;;;;0.30;0.30;;;22.30;59.20;;;;;;6216404;28;20137;-71
2022/09/03 14:00:53;;;;;;;0.30;0.30;;;22.20;59.20;;;;;;6290673;28;20261;-72
2022/09/03 14:04:01;;;;;;;1.95;0.30;;;22.20;59.20;;;;;;6288903;28;20056;-71
2022/09/03 14:07:16;;;;;;;0.43;0.40;;;22.20;59.20;;;;;;6286904;28;20032;-71
2022/09/03 14:10:44;;;;;;;0.25;0.22;;;22.20;59.20;;;;;;6290548;28;20055;-71
2022/09/03 14:13:48;;;;;;;0.40;0.32;;;22.30;59.20;;;;;;6272879;28;20032;-71
2022/09/03 14:17:00;;;;;;;0.30;0.30;;;22.20;59.10;;;;;;6290218;28;20051;-71
2022/09/03 14:20:11;;;;;;;0.40;0.40;;;22.20;59.10;;;;;;6290152;28;20032;-72
2022/09/03 14:23:27;;;;;;;0.43;0.30;;;22.30;59.20;;;;;;6290305;28;20060;-71
2022/09/03 14:26:31;;;;;;;0.47;0.45;;;22.30;59.20;;;;;;6265179;28;20555;-71
2022/09/03 14:29:34;;;;;;;0.40;0.40;;;22.30;59.20;;;;;;6273772;28;20048;-71
2022/09/03 14:32:56;;;;;;;0.30;0.30;;;22.30;59.20;;;;;;6227160;28;20123;-71
2022/09/03 14:36:17;;;;;;;0.47;0.30;;;22.20;59.10;;;;;;6216020;28;20067;-72
2022/09/03 14:39:58;;;;;;;0.50;0.30;;;22.20;59.10;;;;;;6215779;28;20101;-71
2022/09/03 14:43:28;;;;;;;0.50;0.30;;;22.30;59.20;;;;;;6215475;28;20500;-71
2022/09/03 14:46:41;;;;;;;0.30;0.30;;;22.20;59.10;;;;;;6213244;28;20119;-71
2022/09/03 14:50:03;;;;;;;0.30;0.30;;;22.20;59.10;;;;;;6214474;28;20069;-71
2022/09/03 14:53:26;;;;;;;0.45;0.40;;;22.20;59.10;;;;;;6214090;28;20493;-71
2022/09/03 14:56:48;;;;;;;0.32;0.30;;;22.20;59.20;;;;;;6215233;28;20026;-74
2022/09/03 15:00:14;;;;;;;0.45;0.38;;;22.20;59.10;;;;;;6219154;28;20042;-74
2022/09/03 15:03:34;;;;;;;0.22;0.22;;;22.20;59.10;;;;;;6219544;28;20068;-71
2022/09/03 15:06:47;;;;;;;0.45;0.40;;;22.20;59.20;;;;;;6219671;28;20379;-71
2022/09/03 15:10:20;;;;;;;0.47;0.30;;;22.20;59.10;;;;;;6217827;28;20034;-71
2022/09/03 15:13:29;;;;;;;0.40;0.30;;;22.20;59.10;;;;;;6218803;28;20018;-71
2022/09/03 15:16:55;;;;;;;0.47;0.40;;;22.20;59.20;;;;;;6217879;28;20029;-71
2022/09/03 15:20:10;;;;;;;0.40;0.40;;;22.20;59.10;;;;;;6219437;28;20022;-72
2022/09/03 15:23:20;;;;;;;0.30;0.30;;;22.20;59.10;;;;;;6218768;28;20481;-71
2022/09/03 15:26:42;;;;;;;0.40;0.40;;;22.20;59.10;;;;;;6219394;28;20053;-71
2022/09/03 15:29:57;;;;;;;0.30;0.30;;;22.20;59.10;;;;;;6218826;28;20076;-71
2022/09/03 15:33:12;;;;;;;0.40;0.30;;;22.20;59.10;;;;;;6225342;28;20420;-71
2022/09/03 15:36:47;;;;;;;0.30;0.30;;;22.20;59.10;;;;;;6218979;28;20485;-71
2022/09/03 15:40:20;;;;;;;0.30;0.30;;;22.20;59.10;;;;;;6228264;28;20029;-71
2022/09/03 15:43:31;;;;;;;0.28;0.20;;;22.20;59.10;;;;;;6218302;28;20053;-71
2022/09/03 15:46:43;;;;;;;0.60;0.38;;;22.20;59.10;;;;;;6209061;28;20079;-71
2022/09/03 15:50:18;;;;;;;1.00;0.50;;;22.20;59.10;;;;;;6218640;28;20030;-71
2022/09/03 15:53:40;;;;;;;0.50;0.40;;;22.20;59.10;;;;;;6193404;28;20030;-71
2022/09/03 15:57:03;;;;;;;0.30;0.30;;;22.20;59.10;;;;;;6207500;28;20022;-72
2022/09/03 16:00:15;;;;;;;1.85;0.38;;;22.20;59.10;;;;;;6216495;28;20504;-71
2022/09/03 16:03:22;;;;;;;0.40;0.40;;;22.20;59.10;;;;;;6216732;28;20075;-71
2022/09/03 16:07:00;;;;;;;0.35;0.30;;;22.20;59.20;;;;;;6216913;28;20030;-71
2022/09/03 16:10:19;;;;;;;0.30;0.20;;;22.20;59.20;;;;;;6216153;28;20094;-71
2022/09/03 16:13:37;;;;;;;0.65;0.30;;;22.20;59.10;;;;;;6216288;28;20075;-71
2022/09/03 16:17:14;;;;;;;0.20;0.20;;;22.20;59.10;;;;;;6213855;28;20030;-71
2022/09/03 16:20:26;;;;;;;0.22;0.22;;;22.20;59.20;;;;;;6239442;28;20112;-72
2022/09/03 16:23:51;;;;;;;0.68;0.50;;;22.20;59.10;;;;;;6192248;28;20034;-71
2022/09/03 16:27:06;;;;;;;0.40;0.30;;;22.20;59.20;;;;;;6202539;28;20065;-71